CheckWX is a tool to help pilots better visualize weather data.  It is not intended as a substitute for an official pre-flight weather briefing.

17:30:26 UTC

KCYS METAR
Cheyenne Regional / Jerry Olson Field Airport
Cheyenne, Wyoming, USA
Current

37 mins ago

KCYS 211653Z 00000KT 10SM CLR 22/13 A3027 RMK AO2 SLP174 T02220133
Observed
Jul-21 @ 16:53 UTC
Visibility
10 SM
Flight Rules
VFR
Cloud Levels
  • Clear skies
Temperature
22°C / 72°F
Dewpoint
13°C / 55°F
Humidity
57%
Altimeter
30.27" Hg
Pressure
1025.02 hPa
Previous

2 hours ago

KCYS 211553Z VRB04KT 10SM CLR 20/14 A3024 RMK AO2 SLP164 T02000139
Observed
Jul-21 @ 15:53 UTC
Wind
  • Variable at 4 KTS
Visibility
10 SM
Flight Rules
VFR
Cloud Levels
  • Clear skies
Temperature
20°C / 68°F
Dewpoint
14°C / 57°F
Humidity
69%
Altimeter
30.24" Hg
Pressure
1024.02 hPa
Previous

2 hours ago

KCYS 211526Z VRB05KT 10SM SCT015 18/14 A3024 RMK AO2 T01830139
Observed
Jul-21 @ 15:26 UTC
Wind
  • Variable at 5 KTS
Visibility
10 SM
Flight Rules
VFR
Cloud Levels
  • Scattered at 1,500' AGL
Temperature
18°C / 64°F
Dewpoint
14°C / 57°F
Humidity
78%
Altimeter
30.24" Hg
Pressure
1024.02 hPa